Time;durP1;ratioP1;P1;durP2;ratioP2;P2;SDS_P1;SDS_P2;PMS_P1;PMS_P2;Temp;Humidity;BMP_temperature;BMP_pressure;BME280_temperature;BME280_humidity;BME280_pressure;Samples;Min_cycle;Max_cycle;Signal;HPM_P1;HPM_P2
2023/04/19 00:00:09;;;;;;;9.80;8.23;;;13.50;99.90;;;;;;4975145;28;20101;-92
2023/04/19 00:02:35;;;;;;;9.77;8.75;;;13.40;99.90;;;;;;4974155;28;20435;-92
2023/04/19 00:05:01;;;;;;;10.40;8.60;;;13.30;99.90;;;;;;4974182;28;20041;-93
2023/04/19 00:07:27;;;;;;;9.50;8.48;;;13.50;99.90;;;;;;4975422;28;20087;-92
2023/04/19 00:09:52;;;;;;;10.23;8.90;;;13.30;99.90;;;;;;4974761;28;20126;-92
2023/04/19 00:12:18;;;;;;;12.18;8.85;;;13.30;99.90;;;;;;4975307;28;20022;-92
2023/04/19 00:14:44;;;;;;;10.20;9.23;;;13.10;99.90;;;;;;4975304;28;20109;-92
2023/04/19 00:17:10;;;;;;;9.30;8.40;;;13.20;99.90;;;;;;4975413;28;20027;-92
2023/04/19 00:19:37;;;;;;;10.27;9.30;;;13.20;99.90;;;;;;4975138;28;20051;-92
2023/04/19 00:22:02;;;;;;;10.68;9.57;;;13.10;99.90;;;;;;4975124;28;20026;-92
2023/04/19 00:24:28;;;;;;;12.65;9.73;;;12.90;99.90;;;;;;4974661;28;20039;-92
2023/04/19 00:26:54;;;;;;;11.13;10.13;;;12.70;99.90;;;;;;4974191;28;20026;-92
2023/04/19 00:29:19;;;;;;;11.68;9.60;;;12.80;99.90;;;;;;4974787;28;20506;-93
2023/04/19 00:31:45;;;;;;;11.07;10.00;;;12.80;99.90;;;;;;4974618;28;20027;-92
2023/04/19 00:34:11;;;;;;;10.68;9.68;;;12.90;99.90;;;;;;4975053;28;20086;-92
2023/04/19 00:36:36;;;;;;;11.55;10.40;;;12.50;99.90;;;;;;4973981;28;20492;-92
2023/04/19 00:39:02;;;;;;;12.07;10.82;;;12.50;99.90;;;;;;4974616;28;20058;-91
2023/04/19 00:41:28;;;;;;;13.50;11.95;;;12.70;99.90;;;;;;4974795;28;20034;-92
2023/04/19 00:43:54;;;;;;;13.15;11.85;;;12.80;99.90;;;;;;4973794;28;20480;-92
2023/04/19 00:46:20;;;;;;;11.98;10.88;;;12.50;99.90;;;;;;4974541;28;20031;-92
2023/04/19 00:48:47;;;;;;;11.32;10.13;;;12.30;99.90;;;;;;4974796;28;20026;-92
2023/04/19 00:51:13;;;;;;;11.45;10.35;;;12.10;99.90;;;;;;4975057;28;20097;-92
2023/04/19 00:53:40;;;;;;;10.55;9.52;;;11.90;99.90;;;;;;4974291;28;20035;-92
2023/04/19 00:56:05;;;;;;;11.93;10.20;;;12.00;99.90;;;;;;4974567;28;20058;-92
2023/04/19 00:58:32;;;;;;;11.75;10.48;;;12.10;99.90;;;;;;4974525;28;20066;-92
2023/04/19 01:00:58;;;;;;;11.82;9.95;;;11.70;99.90;;;;;;4974920;28;20521;-92
2023/04/19 01:03:26;;;;;;;12.38;10.40;;;11.50;99.90;;;;;;4974443;28;20041;-90
2023/04/19 01:05:52;;;;;;;12.45;10.38;;;11.40;99.90;;;;;;4974253;28;20081;-92
2023/04/19 01:08:17;;;;;;;11.23;10.20;;;11.60;99.90;;;;;;4972758;28;20478;-92
2023/04/19 01:10:43;;;;;;;11.82;9.88;;;11.60;99.90;;;;;;4974347;28;20042;-92
2023/04/19 01:13:09;;;;;;;11.85;10.65;;;11.90;99.90;;;;;;4974247;28;20034;-92
2023/04/19 01:15:35;;;;;;;12.35;11.15;;;11.70;99.90;;;;;;4974430;28;20033;-91
2023/04/19 01:18:01;;;;;;;12.38;11.02;;;11.90;99.90;;;;;;4974687;28;20092;-92
2023/04/19 01:20:26;;;;;;;12.18;11.02;;;11.90;99.90;;;;;;4974578;28;20450;-92
2023/04/19 01:22:52;;;;;;;12.45;11.15;;;11.80;99.90;;;;;;4972519;28;20117;-92
2023/04/19 01:25:18;;;;;;;12.85;11.60;;;11.80;99.90;;;;;;4974234;28;20027;-92
2023/04/19 01:27:44;;;;;;;12.55;11.30;;;11.80;99.90;;;;;;4973933;28;20062;-92
2023/04/19 01:30:10;;;;;;;12.52;11.25;;;12.00;99.90;;;;;;4973866;28;20034;-93
2023/04/19 01:32:36;;;;;;;13.05;11.48;;;11.90;99.90;;;;;;4974171;28;20041;-92
2023/04/19 01:35:01;;;;;;;12.75;11.48;;;11.70;99.90;;;;;;4974152;28;20031;-92
2023/04/19 01:37:27;;;;;;;13.18;11.88;;;11.80;99.90;;;;;;4973718;28;20027;-92
2023/04/19 01:39:53;;;;;;;13.15;11.48;;;11.60;99.90;;;;;;4974147;28;20030;-93
2023/04/19 01:42:18;;;;;;;11.70;10.50;;;11.40;99.90;;;;;;4973946;28;20027;-91
2023/04/19 01:44:44;;;;;;;12.73;11.43;;;11.20;99.90;;;;;;4974210;28;20030;-92
2023/04/19 01:47:10;;;;;;;11.93;10.73;;;11.20;99.90;;;;;;4973736;28;20492;-92
2023/04/19 01:49:36;;;;;;;12.10;10.90;;;10.90;99.90;;;;;;4973691;28;20023;-92
2023/04/19 01:52:01;;;;;;;12.15;10.95;;;10.90;99.90;;;;;;4973468;28;20041;-92
2023/04/19 01:54:27;;;;;;;12.13;10.85;;;11.20;99.90;;;;;;4975418;28;20073;-92
2023/04/19 01:56:52;;;;;;;13.10;11.25;;;11.30;99.90;;;;;;4978045;28;20026;-92
2023/04/19 01:59:18;;;;;;;14.18;11.88;;;11.50;99.90;;;;;;4977334;28;20291;-92
2023/04/19 02:01:44;;;;;;;15.40;11.95;;;11.40;99.90;;;;;;4976309;28;20495;-92
2023/04/19 02:04:09;;;;;;;13.63;12.15;;;11.50;99.90;;;;;;4977596;28;20025;-92
2023/04/19 02:06:35;;;;;;;13.95;12.20;;;11.50;99.90;;;;;;4977456;28;20034;-92
2023/04/19 02:09:01;;;;;;;13.88;12.18;;;11.30;99.90;;;;;;4976115;28;20023;-92
2023/04/19 02:11:26;;;;;;;13.55;12.25;;;11.20;99.90;;;;;;4977364;28;20089;-92
2023/04/19 02:13:52;;;;;;;14.48;12.95;;;11.30;99.90;;;;;;4977983;28;20031;-92
2023/04/19 02:16:17;;;;;;;15.25;13.57;;;11.10;99.90;;;;;;4977562;28;20109;-92
2023/04/19 02:18:45;;;;;;;14.05;12.65;;;11.00;99.90;;;;;;4977475;28;20018;-92
2023/04/19 02:21:11;;;;;;;16.42;13.63;;;11.00;99.90;;;;;;4976668;28;20049;-92
2023/04/19 02:23:36;;;;;;;14.88;13.32;;;11.10;99.90;;;;;;4977396;28;20050;-92
2023/04/19 02:26:02;;;;;;;14.25;12.85;;;11.40;99.90;;;;;;4976972;28;20034;-91
2023/04/19 02:28:29;;;;;;;13.80;12.50;;;11.50;99.90;;;;;;4977534;28;20462;-92
2023/04/19 02:30:55;;;;;;;14.07;12.25;;;11.00;99.90;;;;;;4975475;28;20047;-92
2023/04/19 02:33:21;;;;;;;13.88;12.43;;;10.50;99.90;;;;;;4977434;28;20157;-92
2023/04/19 02:35:46;;;;;;;12.82;11.40;;;10.40;99.90;;;;;;4975686;28;20165;-91
2023/04/19 02:38:12;;;;;;;14.75;12.68;;;10.50;99.90;;;;;;4976892;28;20452;-92
2023/04/19 02:40:38;;;;;;;13.40;12.02;;;10.40;99.90;;;;;;4976761;28;20041;-92
2023/04/19 02:43:03;;;;;;;13.65;12.25;;;10.50;99.90;;;;;;4976029;28;20097;-92
2023/04/19 02:45:29;;;;;;;15.23;12.70;;;10.40;99.90;;;;;;4977082;28;20035;-92
2023/04/19 02:47:55;;;;;;;14.52;11.90;;;10.40;99.90;;;;;;4977642;28;20030;-92
2023/04/19 02:50:20;;;;;;;13.43;12.02;;;10.20;99.90;;;;;;4976110;28;20053;-92
2023/04/19 02:52:46;;;;;;;13.00;11.50;;;10.00;99.90;;;;;;4977541;28;20030;-92
2023/04/19 02:55:11;;;;;;;13.40;12.05;;;9.70;99.90;;;;;;4975540;28;20031;-91
2023/04/19 02:57:37;;;;;;;12.73;11.40;;;9.90;99.90;;;;;;4975686;28;20027;-92
2023/04/19 03:00:04;;;;;;;14.30;12.68;;;9.80;99.90;;;;;;4975484;28;20142;-93
2023/04/19 03:02:30;;;;;;;15.15;13.65;;;10.20;99.90;;;;;;4976918;28;20042;-92
2023/04/19 03:04:55;;;;;;;15.20;12.25;;;10.20;99.90;;;;;;4974851;28;20395;-92
2023/04/19 03:07:22;;;;;;;13.70;12.27;;;10.30;99.90;;;;;;4975870;28;20055;-92
2023/04/19 03:09:47;;;;;;;14.57;13.15;;;10.50;99.90;;;;;;4975682;28;20491;-92
2023/04/19 03:12:13;;;;;;;14.32;12.80;;;10.50;99.90;;;;;;4975254;28;20034;-92
2023/04/19 03:14:39;;;;;;;13.95;12.48;;;10.20;99.90;;;;;;4976410;28;20027;-92
2023/04/19 03:17:05;;;;;;;14.60;13.10;;;10.00;99.90;;;;;;4975409;28;20023;-91
2023/04/19 03:19:30;;;;;;;15.15;13.07;;;10.10;99.90;;;;;;4975935;28;20089;-92
2023/04/19 03:21:56;;;;;;;14.77;13.23;;;10.30;99.90;;;;;;4976450;28;20514;-92
2023/04/19 03:24:29;;;;;;;14.77;13.27;;;10.30;99.90;;;;;;4974885;28;20037;-92
2023/04/19 03:26:58;;;;;;;14.52;12.82;;;10.30;99.90;;;;;;4976437;28;20038;-92
2023/04/19 03:29:23;;;;;;;14.80;13.30;;;10.30;99.90;;;;;;4972661;28;20034;-92
2023/04/19 03:31:49;;;;;;;16.27;14.25;;;10.50;99.90;;;;;;4975192;28;20097;-92
2023/04/19 03:34:15;;;;;;;15.52;13.93;;;10.80;99.90;;;;;;4975793;28;20019;-92
2023/04/19 03:36:41;;;;;;;15.27;13.68;;;10.50;99.90;;;;;;4976167;28;20026;-92
2023/04/19 03:39:06;;;;;;;15.00;13.50;;;10.60;99.90;;;;;;4975724;28;20030;-92
2023/04/19 03:41:32;;;;;;;15.80;13.45;;;10.40;99.90;;;;;;4976077;28;20027;-92
2023/04/19 03:43:58;;;;;;;14.95;13.43;;;10.40;99.90;;;;;;4974836;28;20046;-92
2023/04/19 03:46:24;;;;;;;16.05;14.40;;;10.30;99.90;;;;;;4975449;28;20146;-92
2023/04/19 03:48:50;;;;;;;14.98;13.35;;;10.30;99.90;;;;;;4974705;28;20023;-92
2023/04/19 03:51:16;;;;;;;15.27;13.77;;;10.30;99.90;;;;;;4975494;28;20035;-92
2023/04/19 03:53:42;;;;;;;16.45;14.73;;;10.40;99.90;;;;;;4975769;28;20395;-92
2023/04/19 03:56:07;;;;;;;15.73;14.13;;;10.30;99.90;;;;;;4975740;28;20074;-92
2023/04/19 03:58:33;;;;;;;17.42;14.93;;;9.90;99.90;;;;;;4975050;28;20145;-92
2023/04/19 04:01:00;;;;;;;16.13;14.15;;;9.60;99.90;;;;;;4975466;28;20077;-92
2023/04/19 04:03:25;;;;;;;19.23;14.88;;;9.60;99.90;;;;;;4975179;28;20029;-91
2023/04/19 04:05:51;;;;;;;20.60;14.45;;;9.80;99.90;;;;;;4975470;28;20031;-92
2023/04/19 04:08:17;;;;;;;20.83;14.13;;;10.00;99.90;;;;;;4975449;28;20440;-92
2023/04/19 04:10:42;;;;;;;22.90;14.07;;;9.70;99.90;;;;;;4975126;28;20121;-92
2023/04/19 04:13:08;;;;;;;16.58;14.10;;;9.80;99.90;;;;;;4975123;28;20047;-92
2023/04/19 04:15:33;;;;;;;19.80;14.50;;;9.90;99.90;;;;;;4975285;28;20030;-92
2023/04/19 04:17:59;;;;;;;17.25;14.68;;;9.90;99.90;;;;;;4974736;28;20407;-93
2023/04/19 04:20:25;;;;;;;17.83;13.75;;;9.90;99.90;;;;;;4975013;28;20033;-93
2023/04/19 04:22:51;;;;;;;15.75;14.15;;;10.10;99.90;;;;;;4973867;28;20110;-93
2023/04/19 04:25:17;;;;;;;16.08;14.38;;;9.80;99.90;;;;;;4975176;28;20114;-92
2023/04/19 04:27:43;;;;;;;18.88;15.10;;;9.80;99.90;;;;;;4975091;28;20114;-92
2023/04/19 04:30:10;;;;;;;16.52;14.73;;;9.80;99.90;;;;;;4974999;28;20038;-92
2023/04/19 04:32:36;;;;;;;16.80;14.90;;;9.80;99.90;;;;;;4973435;28;20460;-92
2023/04/19 04:35:07;;;;;;;16.65;14.65;;;9.80;99.90;;;;;;4974793;28;20106;-92
2023/04/19 04:37:33;;;;;;;15.82;14.23;;;9.70;99.90;;;;;;4974985;28;20023;-92
2023/04/19 04:40:06;;;;;;;15.38;13.63;;;9.60;99.90;;;;;;4973567;28;20037;-92
2023/04/19 04:42:32;;;;;;;14.95;13.35;;;9.50;99.90;;;;;;4975084;28;20037;-92
2023/04/19 04:45:00;;;;;;;15.48;13.65;;;9.30;99.90;;;;;;4974281;28;20026;-92
2023/04/19 04:47:33;;;;;;;15.90;14.30;;;9.30;99.90;;;;;;4974662;28;20521;-92
2023/04/19 04:49:59;;;;;;;16.55;14.55;;;9.70;99.90;;;;;;4974423;28;20137;-92
2023/04/19 04:52:25;;;;;;;16.73;15.05;;;9.80;99.90;;;;;;4974751;28;20019;-92
2023/04/19 04:54:51;;;;;;;17.83;15.60;;;9.70;99.90;;;;;;4973836;28;20030;-92
2023/04/19 04:57:16;;;;;;;17.45;15.60;;;9.80;99.90;;;;;;4974552;28;20027;-92
2023/04/19 04:59:42;;;;;;;17.52;15.70;;;10.00;99.90;;;;;;4974299;28;20403;-92
2023/04/19 05:02:07;;;;;;;18.42;16.00;;;10.00;99.90;;;;;;4974554;28;20078;-93
2023/04/19 05:04:33;;;;;;;19.30;16.33;;;9.80;99.90;;;;;;4974633;28;20394;-92
2023/04/19 05:06:59;;;;;;;19.20;16.17;;;10.10;99.90;;;;;;4974454;28;20034;-92
2023/04/19 05:09:24;;;;;;;18.92;15.82;;;9.70;99.90;;;;;;4974453;28;20037;-92
2023/04/19 05:11:50;;;;;;;17.40;15.15;;;9.80;99.90;;;;;;4973096;28;20073;-92
2023/04/19 05:14:16;;;;;;;17.92;15.10;;;9.60;99.90;;;;;;4973955;28;20114;-92
2023/04/19 05:16:41;;;;;;;16.83;15.13;;;9.50;99.90;;;;;;4974534;28;20038;-92
2023/04/19 05:19:07;;;;;;;18.63;15.23;;;9.60;99.90;;;;;;4974181;28;20031;-93
2023/04/19 05:21:33;;;;;;;17.95;14.93;;;9.50;99.90;;;;;;4973865;28;20022;-92
2023/04/19 05:23:59;;;;;;;19.33;16.08;;;9.50;99.90;;;;;;4974005;28;20534;-92
2023/04/19 05:26:24;;;;;;;19.17;15.98;;;9.40;99.90;;;;;;4974060;28;20035;-92
2023/04/19 05:28:50;;;;;;;19.63;15.57;;;9.50;99.90;;;;;;4970936;28;20373;-92
2023/04/19 05:31:17;;;;;;;21.25;16.98;;;9.70;99.90;;;;;;4972782;28;20079;-92
2023/04/19 05:33:42;;;;;;;20.08;15.98;;;9.70;99.90;;;;;;4973989;28;20412;-92
2023/04/19 05:36:08;;;;;;;19.05;15.85;;;9.80;99.90;;;;;;4975618;28;20027;-95
2023/04/19 05:38:34;;;;;;;19.73;15.68;;;9.90;99.90;;;;;;4974869;28;20035;-92
2023/04/19 05:41:00;;;;;;;16.92;15.20;;;9.90;99.90;;;;;;4974513;28;20030;-92
2023/04/19 05:43:25;;;;;;;17.98;16.00;;;9.80;99.90;;;;;;4974250;28;20035;-92
2023/04/19 05:45:51;;;;;;;17.63;15.73;;;9.90;99.90;;;;;;4978435;28;20081;-92
2023/04/19 05:48:17;;;;;;;19.33;15.95;;;10.10;99.90;;;;;;4992783;28;20034;-92
2023/04/19 05:50:42;;;;;;;17.30;14.18;;;10.10;99.90;;;;;;4993342;28;20495;-92
2023/04/19 05:53:08;;;;;;;17.25;14.93;;;10.00;99.90;;;;;;4993462;28;20121;-93
2023/04/19 05:55:33;;;;;;;15.10;13.48;;;9.90;99.90;;;;;;4993957;28;20084;-92
2023/04/19 05:57:59;;;;;;;15.93;13.57;;;9.80;99.90;;;;;;4992146;28;20058;-92
2023/04/19 06:00:26;;;;;;;16.75;14.07;;;9.90;99.90;;;;;;4974105;28;20042;-92
2023/04/19 06:02:52;;;;;;;15.15;13.55;;;10.10;99.90;;;;;;4973022;28;20094;-92
2023/04/19 06:05:17;;;;;;;15.07;13.55;;;10.20;99.90;;;;;;4974433;28;20027;-92
2023/04/19 06:07:43;;;;;;;16.10;14.07;;;10.20;99.90;;;;;;4973985;28;20023;-92
2023/04/19 06:10:09;;;;;;;15.20;13.60;;;10.30;99.90;;;;;;4973576;28;20042;-92
2023/04/19 06:12:34;;;;;;;15.45;13.55;;;10.20;99.90;;;;;;4972449;28;20027;-92
2023/04/19 06:15:00;;;;;;;17.95;13.75;;;10.20;99.90;;;;;;4974130;28;20050;-92
2023/04/19 06:17:26;;;;;;;15.30;13.80;;;10.50;99.90;;;;;;4973957;28;20031;-92
2023/04/19 06:19:52;;;;;;;15.50;13.60;;;10.50;99.90;;;;;;4972847;28;20027;-92
2023/04/19 06:22:18;;;;;;;16.55;14.85;;;10.40;99.90;;;;;;4973812;28;20051;-91
2023/04/19 06:24:47;;;;;;;17.58;15.15;;;10.60;99.90;;;;;;4973947;28;20057;-93
2023/04/19 06:27:14;;;;;;;20.02;14.85;;;10.60;99.90;;;;;;4973180;28;20077;-91
2023/04/19 06:29:39;;;;;;;16.25;14.55;;;10.60;99.90;;;;;;4973905;28;20085;-91
2023/04/19 06:32:05;;;;;;;16.73;14.98;;;10.60;99.90;;;;;;4974485;28;20031;-91
2023/04/19 06:34:31;;;;;;;17.40;14.77;;;10.70;99.90;;;;;;4974081;28;20058;-92
2023/04/19 06:36:56;;;;;;;17.65;15.40;;;10.80;99.90;;;;;;4974006;28;20034;-92
2023/04/19 06:39:22;;;;;;;17.17;14.95;;;10.90;99.90;;;;;;4973687;28;20070;-93
2023/04/19 06:41:47;;;;;;;18.05;14.45;;;11.00;99.90;;;;;;4974293;28;20034;-92
2023/04/19 06:44:13;;;;;;;16.40;14.63;;;11.10;99.90;;;;;;4977436;28;20019;-93
2023/04/19 06:46:39;;;;;;;18.13;14.65;;;11.10;99.90;;;;;;4977335;28;20507;-92
2023/04/19 06:49:05;;;;;;;19.88;16.30;;;11.10;99.90;;;;;;4977289;28;20030;-92
2023/04/19 06:51:31;;;;;;;19.38;14.50;;;11.00;99.90;;;;;;4976980;28;20038;-92
2023/04/19 06:53:57;;;;;;;17.15;15.30;;;11.20;99.90;;;;;;4976999;28;20368;-92
2023/04/19 06:56:46;;;;;;;16.40;14.68;;;11.20;99.90;;;;;;4975445;28;20078;-92
2023/04/19 06:59:13;;;;;;;18.88;14.70;;;11.30;99.90;;;;;;4976557;28;20559;-92
2023/04/19 07:01:39;;;;;;;17.63;15.27;;;11.50;99.90;;;;;;4977167;28;20023;-90
2023/04/19 07:04:06;;;;;;;15.65;13.88;;;11.70;99.90;;;;;;4976538;28;20030;-90
2023/04/19 07:06:33;;;;;;;16.25;14.18;;;11.70;99.90;;;;;;4976752;28;20054;-90
2023/04/19 07:08:58;;;;;;;15.23;13.63;;;11.80;99.90;;;;;;4975433;28;20027;-90
2023/04/19 07:11:24;;;;;;;15.20;13.70;;;11.90;99.90;;;;;;4976033;28;20030;-90
2023/04/19 07:13:50;;;;;;;16.08;13.93;;;11.80;99.90;;;;;;4976620;28;20023;-90
2023/04/19 07:16:16;;;;;;;15.35;13.70;;;11.90;99.90;;;;;;4976454;28;20061;-90
2023/04/19 07:18:42;;;;;;;15.55;13.38;;;12.00;99.90;;;;;;4977030;28;20031;-90
2023/04/19 07:21:08;;;;;;;14.88;13.27;;;12.00;99.90;;;;;;4976243;28;20027;-90
2023/04/19 07:23:34;;;;;;;16.05;13.38;;;12.20;99.90;;;;;;4975393;28;20113;-90
2023/04/19 07:26:00;;;;;;;15.63;14.07;;;12.20;99.90;;;;;;4976064;28;20051;-90
2023/04/19 07:28:28;;;;;;;14.80;12.95;;;12.30;99.90;;;;;;4976053;28;20039;-91
2023/04/19 07:30:54;;;;;;;15.95;14.25;;;12.40;99.90;;;;;;4976257;28;20065;-90
2023/04/19 07:33:21;;;;;;;15.48;13.88;;;12.50;99.90;;;;;;4976477;28;20058;-90
2023/04/19 07:35:46;;;;;;;15.68;13.80;;;12.60;99.90;;;;;;4976025;28;20039;-90
2023/04/19 07:38:12;;;;;;;15.75;14.10;;;12.60;99.90;;;;;;4975083;28;20170;-90
2023/04/19 07:40:37;;;;;;;15.45;13.82;;;12.60;99.90;;;;;;4975709;28;20529;-90
2023/04/19 07:43:03;;;;;;;16.92;13.88;;;12.80;99.90;;;;;;4976093;28;20117;-90
2023/04/19 07:45:30;;;;;;;16.92;13.75;;;12.80;99.90;;;;;;4975723;28;20039;-90
2023/04/19 07:47:55;;;;;;;17.23;15.05;;;12.80;99.90;;;;;;4975907;28;20121;-89
2023/04/19 07:50:21;;;;;;;15.95;14.30;;;12.80;99.90;;;;;;4976023;28;20031;-90
2023/04/19 07:52:47;;;;;;;16.95;14.05;;;12.80;99.90;;;;;;4975314;28;20444;-90
2023/04/19 07:55:12;;;;;;;15.48;13.88;;;12.80;99.90;;;;;;4975178;28;20050;-90
2023/04/19 07:57:38;;;;;;;14.43;12.93;;;12.90;99.90;;;;;;4975893;28;20035;-90
2023/04/19 08:00:05;;;;;;;15.82;12.98;;;13.10;99.90;;;;;;4975420;28;20423;-90
2023/04/19 08:02:30;;;;;;;15.75;13.98;;;13.20;99.90;;;;;;4975877;28;20027;-90
2023/04/19 08:04:56;;;;;;;17.33;13.57;;;13.30;99.90;;;;;;4975604;28;20419;-90
2023/04/19 08:07:22;;;;;;;15.55;13.48;;;13.40;99.90;;;;;;4975299;28;20483;-90
2023/04/19 08:09:48;;;;;;;14.65;13.13;;;13.50;99.90;;;;;;4973831;28;20034;-90
2023/04/19 08:12:14;;;;;;;14.30;12.85;;;13.60;99.90;;;;;;4975490;28;20113;-90
2023/04/19 08:14:41;;;;;;;15.73;13.25;;;13.50;99.90;;;;;;4975724;28;20066;-90
2023/04/19 08:17:06;;;;;;;14.63;13.13;;;13.50;99.90;;;;;;4975635;28;20035;-90
2023/04/19 08:19:32;;;;;;;14.55;12.98;;;13.50;99.90;;;;;;4975612;28;20022;-90
2023/04/19 08:21:58;;;;;;;17.25;13.65;;;13.60;99.90;;;;;;4974124;28;20043;-90
2023/04/19 08:24:24;;;;;;;15.25;13.27;;;13.70;99.90;;;;;;4974853;28;20019;-90
2023/04/19 08:26:52;;;;;;;14.30;12.68;;;13.80;99.90;;;;;;4975252;28;20497;-90
2023/04/19 08:29:22;;;;;;;13.75;12.35;;;13.90;99.90;;;;;;4974854;28;20162;-90
2023/04/19 08:31:48;;;;;;;14.48;12.93;;;14.00;99.90;;;;;;4974017;28;20125;-90
2023/04/19 08:34:13;;;;;;;15.85;12.52;;;14.10;99.90;;;;;;4973691;28;20468;-90
2023/04/19 08:36:39;;;;;;;14.35;12.82;;;14.10;99.90;;;;;;4973659;28;20031;-90
2023/04/19 08:39:05;;;;;;;15.85;14.07;;;14.20;99.90;;;;;;4974997;28;20054;-90
2023/04/19 08:41:31;;;;;;;12.98;11.45;;;14.30;99.90;;;;;;4975046;28;20491;-89
2023/04/19 08:43:58;;;;;;;14.10;12.13;;;14.50;99.90;;;;;;4974610;28;20034;-89
2023/04/19 08:46:25;;;;;;;14.00;12.50;;;14.70;99.90;;;;;;4974544;28;20033;-91
2023/04/19 08:48:51;;;;;;;14.73;12.20;;;14.70;99.90;;;;;;4973655;28;20472;-90
2023/04/19 08:51:18;;;;;;;13.07;11.75;;;14.70;99.90;;;;;;4973300;28;20121;-89
2023/04/19 08:53:46;;;;;;;13.23;11.68;;;14.80;99.90;;;;;;4974761;28;20027;-90
2023/04/19 08:56:12;;;;;;;11.55;10.13;;;14.90;99.90;;;;;;4974879;28;20451;-90
2023/04/19 08:58:38;;;;;;;11.73;9.82;;;14.90;99.90;;;;;;4974370;28;20053;-89
2023/04/19 09:01:07;;;;;;;11.02;9.13;;;15.00;99.90;;;;;;4973280;28;20127;-90
2023/04/19 09:03:33;;;;;;;11.57;10.40;;;15.20;99.90;;;;;;4973669;28;20051;-91
2023/04/19 09:06:00;;;;;;;11.75;10.50;;;15.50;99.90;;;;;;4974270;28;20098;-89
2023/04/19 09:08:30;;;;;;;11.07;9.90;;;15.50;99.90;;;;;;4974294;28;20046;-89
2023/04/19 09:11:00;;;;;;;10.77;9.68;;;15.50;99.90;;;;;;4974245;28;20050;-89
2023/04/19 09:13:27;;;;;;;12.13;10.45;;;15.60;99.90;;;;;;4974523;28;20507;-90
2023/04/19 09:15:55;;;;;;;11.05;9.95;;;15.80;99.90;;;;;;4974292;28;20027;-90
2023/04/19 09:18:23;;;;;;;10.60;9.50;;;15.80;99.90;;;;;;4974580;28;20077;-90
2023/04/19 09:20:50;;;;;;;10.77;9.68;;;15.80;99.90;;;;;;4972531;28;20034;-90
2023/04/19 09:23:17;;;;;;;11.68;10.05;;;16.00;99.90;;;;;;4973366;28;20019;-90
2023/04/19 09:26:04;;;;;;;10.65;9.55;;;16.00;99.90;;;;;;4972867;28;20035;-90
2023/04/19 09:28:30;;;;;;;9.93;8.93;;;16.00;99.90;;;;;;4973981;28;20278;-90
2023/04/19 09:30:56;;;;;;;10.50;9.40;;;16.10;99.90;;;;;;4972899;28;20037;-89
2023/04/19 09:33:35;;;;;;;10.68;9.40;;;16.10;99.90;;;;;;4973008;28;20031;-90
2023/04/19 09:36:01;;;;;;;10.70;9.60;;;16.30;99.90;;;;;;4973916;28;20057;-90
2023/04/19 09:38:27;;;;;;;10.50;8.77;;;16.50;99.90;;;;;;4974379;28;20387;-90
2023/04/19 09:41:06;;;;;;;9.38;8.40;;;16.50;99.90;;;;;;4972927;28;20031;-90
2023/04/19 09:43:32;;;;;;;10.18;9.10;;;16.60;99.90;;;;;;4973883;28;20439;-90
2023/04/19 09:45:58;;;;;;;10.00;9.00;;;16.60;99.90;;;;;;4973530;28;20022;-91
2023/04/19 09:48:23;;;;;;;10.07;8.98;;;16.50;99.90;;;;;;4974037;28;20390;-92
2023/04/19 09:51:00;;;;;;;11.10;10.00;;;16.60;99.90;;;;;;4972442;28;20045;-90
2023/04/19 09:53:27;;;;;;;11.38;9.48;;;16.70;99.90;;;;;;4973546;28;20031;-89
2023/04/19 09:55:54;;;;;;;11.75;10.60;;;16.60;99.90;;;;;;4973676;28;20031;-90
2023/04/19 09:58:20;;;;;;;10.57;9.52;;;16.80;99.90;;;;;;4973808;28;20038;-90
2023/04/19 10:00:47;;;;;;;10.13;8.68;;;16.80;99.90;;;;;;4972739;28;20428;-90
2023/04/19 10:03:17;;;;;;;10.70;8.98;;;16.90;99.90;;;;;;4972549;28;20026;-90
2023/04/19 10:05:44;;;;;;;10.45;9.35;;;16.90;99.90;;;;;;4972182;28;20030;-89
2023/04/19 10:08:11;;;;;;;11.13;9.45;;;17.10;99.90;;;;;;4973797;28;20027;-90
2023/04/19 10:10:38;;;;;;;10.18;9.18;;;17.20;99.90;;;;;;4973599;28;20484;-90
2023/04/19 10:13:13;;;;;;;9.88;8.88;;;17.30;99.90;;;;;;4973923;28;20037;-89
2023/04/19 10:15:41;;;;;;;9.27;8.38;;;17.40;99.90;;;;;;4975428;28;20031;-89
2023/04/19 10:18:08;;;;;;;9.68;8.20;;;17.40;99.90;;;;;;4977411;28;20429;-89
2023/04/19 10:20:57;;;;;;;9.40;8.43;;;17.70;99.90;;;;;;4977073;28;20019;-90
2023/04/19 10:23:23;;;;;;;9.45;8.55;;;17.90;99.90;;;;;;4977279;28;20034;-90
2023/04/19 10:25:58;;;;;;;7.88;7.18;;;17.60;99.90;;;;;;4977552;28;20114;-89
2023/04/19 10:28:24;;;;;;;9.07;7.55;;;17.70;99.90;;;;;;4975917;28;20443;-90
2023/04/19 10:30:54;;;;;;;8.65;7.85;;;17.90;99.90;;;;;;4977126;28;20065;-90
2023/04/19 10:33:25;;;;;;;6.93;6.32;;;17.70;99.90;;;;;;4975490;28;20050;-90
2023/04/19 10:35:51;;;;;;;7.38;6.68;;;17.90;99.90;;;;;;4977470;28;20114;-90
2023/04/19 10:38:18;;;;;;;12.20;8.18;;;18.40;99.90;;;;;;4977300;28;20057;-89
2023/04/19 10:40:53;;;;;;;7.57;6.75;;;18.90;99.90;;;;;;4977025;28;20077;-90
2023/04/19 10:43:20;;;;;;;8.20;7.40;;;19.50;99.90;;;;;;4977318;28;20023;-89
2023/04/19 10:45:46;;;;;;;7.60;7.00;;;20.00;99.90;;;;;;4976676;28;20038;-90
2023/04/19 10:48:31;;;;;;;8.57;7.10;;;20.50;99.90;;;;;;4975038;28;20026;-90
2023/04/19 10:51:10;;;;;;;7.57;6.88;;;21.00;99.90;;;;;;4976392;28;20043;-90
2023/04/19 10:53:55;;;;;;;8.30;7.50;;;21.50;99.90;;;;;;4976491;28;20027;-90
2023/04/19 10:56:21;;;;;;;8.10;7.40;;;22.00;99.90;;;;;;4976453;28;20030;-89
2023/04/19 10:59:06;;;;;;;8.45;7.65;;;22.30;99.90;;;;;;4976329;28;20061;-90
2023/04/19 11:01:39;;;;;;;8.27;7.40;;;22.70;99.90;;;;;;4976395;28;20038;-90
2023/04/19 11:04:06;;;;;;;8.93;8.02;;;22.80;99.90;;;;;;4975982;28;20107;-90
2023/04/19 11:06:33;;;;;;;8.30;7.60;;;22.90;99.90;;;;;;4976280;28;20059;-90
2023/04/19 11:08:59;;;;;;;7.75;7.10;;;23.20;99.90;;;;;;4975963;28;20074;-90
2023/04/19 11:11:25;;;;;;;8.63;7.90;;;23.80;99.90;;;;;;4976538;28;20097;-91
2023/04/19 11:13:54;;;;;;;8.35;7.63;;;23.90;99.90;;;;;;4976214;28;20102;-90
2023/04/19 11:16:20;;;;;;;8.13;7.32;;;24.40;99.90;;;;;;4976009;28;20045;-90
2023/04/19 11:18:45;;;;;;;7.68;6.97;;;25.10;99.90;;;;;;4975885;28;20467;-90
2023/04/19 11:21:17;;;;;;;7.53;6.82;;;25.10;99.90;;;;;;4976204;28;20050;-90
2023/04/19 11:23:42;;;;;;;7.00;6.32;;;25.50;99.90;;;;;;4975955;28;20019;-91
2023/04/19 11:26:11;;;;;;;7.65;7.05;;;25.80;99.90;;;;;;4975835;28;20557;-91
2023/04/19 11:28:37;;;;;;;8.13;7.43;;;25.80;99.90;;;;;;4975365;28;20031;-91
2023/04/19 11:31:04;;;;;;;8.40;7.60;;;26.00;99.90;;;;;;4974590;28;20031;-91
2023/04/19 11:33:36;;;;;;;7.57;6.97;;;26.20;99.90;;;;;;4975787;28;20034;-91
2023/04/19 11:36:02;;;;;;;6.88;6.38;;;26.00;99.90;;;;;;4975790;28;20018;-90
2023/04/19 11:38:29;;;;;;;7.82;7.22;;;26.40;99.90;;;;;;4975549;28;20106;-90
2023/04/19 11:41:02;;;;;;;7.28;6.63;;;27.00;99.90;;;;;;4975507;28;20026;-90
2023/04/19 11:43:35;;;;;;;6.40;5.90;;;27.10;99.90;;;;;;4975947;28;20042;-90
2023/04/19 11:46:18;;;;;;;6.68;6.07;;;27.80;99.90;;;;;;4974913;28;20038;-91
2023/04/19 11:48:52;;;;;;;6.97;6.47;;;27.50;99.90;;;;;;4975530;28;20023;-91
2023/04/19 11:51:17;;;;;;;6.35;5.85;;;27.00;99.90;;;;;;4975374;28;20050;-90
2023/04/19 11:53:43;;;;;;;6.13;5.03;;;27.60;99.90;;;;;;4975677;28;20026;-91
2023/04/19 11:56:09;;;;;;;6.05;5.55;;;28.60;99.90;;;;;;4975350;28;20027;-90
2023/04/19 11:58:43;;;;;;;8.90;7.30;;;28.30;99.90;;;;;;4975047;28;20053;-90
2023/04/19 12:01:12;;;;;;;8.52;7.68;;;28.10;99.90;;;;;;4974773;28;20049;-90
2023/04/19 12:03:43;;;;;;;8.25;7.55;;;28.90;99.90;;;;;;4975121;28;20023;-91
2023/04/19 12:06:16;;;;;;;9.35;8.55;;;28.10;99.90;;;;;;4975504;28;20033;-90
2023/04/19 12:08:48;;;;;;;8.70;7.90;;;26.50;99.90;;;;;;4975186;28;20075;-91
2023/04/19 12:11:14;;;;;;;7.85;7.15;;;26.80;99.90;;;;;;4974984;28;20035;-91
2023/04/19 12:13:40;;;;;;;7.18;6.63;;;27.60;99.90;;;;;;4975404;28;20030;-90
2023/04/19 12:16:07;;;;;;;7.35;6.65;;;27.10;99.90;;;;;;4974680;28;20113;-91
2023/04/19 12:19:12;;;;;;;7.75;7.05;;;28.10;99.90;;;;;;4974803;28;20027;-91
2023/04/19 12:21:38;;;;;;;7.35;6.72;;;29.40;99.90;;;;;;4953518;29;20042;-91
2023/04/19 12:24:04;;;;;;;8.63;8.02;;;30.00;99.90;;;;;;4953461;29;20031;-91
2023/04/19 12:26:30;;;;;;;8.30;7.70;;;30.50;99.90;;;;;;4953374;29;20447;-91
2023/04/19 12:28:57;;;;;;;8.18;7.57;;;31.70;99.90;;;;;;4952694;29;20031;-91
2023/04/19 12:31:23;;;;;;;7.30;6.70;;;32.00;99.90;;;;;;4953238;29;20078;-91